Time;durP1;ratioP1;P1;durP2;ratioP2;P2;SDS_P1;SDS_P2;PMS_P1;PMS_P2;Temp;Humidity;BMP_temperature;BMP_pressure;BME280_temperature;BME280_humidity;BME280_pressure;Samples;Min_cycle;Max_cycle;Signal;HPM_P1;HPM_P2
2022/06/27 00:00:15;;;;;;;;;;;17.10;99.90;;;;;;5127713;27;20373;-78
2022/06/27 00:02:41;;;;;;;;;;;17.10;99.90;;;;;;5114894;27;19920;-80
2022/06/27 00:05:07;;;;;;;;;;;17.10;99.90;;;;;;5133109;27;19919;-79
2022/06/27 00:07:35;;;;;;;;;;;17.10;99.90;;;;;;5132203;27;19940;-79
2022/06/27 00:10:00;;;;;;;;;;;17.10;99.90;;;;;;5128656;27;19920;-79
2022/06/27 00:12:26;;;;;;;;;;;17.10;99.90;;;;;;5112253;28;19919;-78
2022/06/27 00:14:52;;;;;;;;;;;17.10;99.90;;;;;;5112032;28;19920;-79
2022/06/27 00:17:18;;;;;;;;;;;17.10;99.90;;;;;;5120365;27;19927;-79
2022/06/27 00:19:43;;;;;;;;;;;17.10;99.90;;;;;;5117039;27;19924;-79
2022/06/27 00:22:09;;;;;;;;;;;17.10;99.90;;;;;;5118104;27;19923;-78
2022/06/27 00:24:41;;;;;;;;;;;17.10;99.90;;;;;;5102759;28;19974;-78
2022/06/27 00:27:07;;;;;;;;;;;17.00;99.90;;;;;;5125519;27;20388;-78
2022/06/27 00:29:40;;;;;;;;;;;17.00;99.90;;;;;;5113166;27;20288;-78
2022/06/27 00:32:06;;;;;;;;;;;17.10;99.90;;;;;;5112086;28;19920;-78
2022/06/27 00:34:32;;;;;;;;;;;17.00;99.90;;;;;;5123675;27;19920;-77
2022/06/27 00:36:58;;;;;;;;;;;17.00;99.90;;;;;;5114411;27;19924;-79
2022/06/27 00:39:23;;;;;;;;;;;17.00;99.90;;;;;;5105496;28;19976;-78
2022/06/27 00:41:49;;;;;;;;;;;17.00;99.90;;;;;;5076961;28;20068;-77
2022/06/27 00:44:35;;;;;;;;;;;17.00;99.90;;;;;;5095198;28;19984;-78
2022/06/27 00:47:07;;;;;;;;;;;17.00;99.90;;;;;;5116052;27;20394;-78
2022/06/27 00:49:33;;;;;;;;;;;16.90;99.90;;;;;;5098645;28;19920;-79
2022/06/27 00:51:59;;;;;;;;;;;16.90;99.90;;;;;;5118696;27;19926;-78
2022/06/27 00:54:30;;;;;;;;;;;16.90;99.90;;;;;;5116836;27;19943;-78
2022/06/27 00:56:56;;;;;;;;;;;16.90;99.90;;;;;;5101303;27;20361;-78
2022/06/27 00:59:29;;;;;;;;;;;16.80;99.90;;;;;;5114968;27;20013;-77
2022/06/27 01:01:54;;;;;;;;;;;16.80;99.90;;;;;;5114689;27;19942;-78
2022/06/27 01:04:21;;;;;;;;;;;16.80;99.90;;;;;;5132165;27;19919;-77
2022/06/27 01:06:48;;;;;;;;;;;16.80;99.90;;;;;;5113540;28;19955;-78
2022/06/27 01:09:14;;;;;;;;;;;16.80;99.90;;;;;;5131574;27;19926;-78
2022/06/27 01:11:39;;;;;;;;;;;16.70;99.90;;;;;;5112886;28;20284;-78
2022/06/27 01:14:06;;;;;;;;;;;16.70;99.90;;;;;;5111766;28;20059;-77
2022/06/27 01:16:32;;;;;;;;;;;16.70;99.90;;;;;;5094387;28;19919;-79
2022/06/27 01:18:57;;;;;;;;;;;16.70;99.90;;;;;;5111170;28;19977;-78
2022/06/27 01:21:24;;;;;;;;;;;16.70;99.90;;;;;;5110594;28;20262;-78
2022/06/27 01:23:51;;;;;;;;;;;16.70;99.90;;;;;;5111137;28;19926;-79
2022/06/27 01:26:17;;;;;;;;;;;16.70;99.90;;;;;;5114883;28;19927;-77
2022/06/27 01:28:43;;;;;;;;;;;16.70;99.90;;;;;;5132055;28;19926;-77
2022/06/27 01:31:12;;;;;;;;;;;16.60;99.90;;;;;;5131618;28;20009;-77
2022/06/27 01:33:38;;;;;;;;;;;16.60;99.90;;;;;;5131601;28;19924;-77
2022/06/27 01:38:49;;;;;;;;;;;16.60;99.90;;;;;;5098941;28;19933;-78
2022/06/27 01:41:16;;;;;;;;;;;16.60;99.90;;;;;;5125570;28;19920;-78
2022/06/27 01:43:41;;;;;;;;;;;16.60;99.90;;;;;;5125361;28;19927;-77
2022/06/27 01:46:07;;;;;;;;;;;16.50;99.90;;;;;;5122899;28;19928;-77
2022/06/27 01:48:39;;;;;;;;;;;16.60;99.90;;;;;;5110850;28;20406;-78
2022/06/27 01:51:08;;;;;;;;;;;16.50;99.90;;;;;;5111688;28;20316;-77
2022/06/27 01:53:34;;;;;;;;;;;16.50;99.90;;;;;;5113101;28;19961;-77
2022/06/27 01:55:59;;;;;;;;;;;16.50;99.90;;;;;;5131148;28;19919;-79
2022/06/27 01:58:25;;;;;;;;;;;16.50;99.90;;;;;;5112766;28;19934;-77
2022/06/27 02:00:51;;;;;;;;;;;16.50;99.90;;;;;;5115306;28;19930;-77
2022/06/27 02:03:18;;;;;;;;;;;16.60;99.90;;;;;;5114629;28;19919;-77
2022/06/27 02:05:51;;;;;;;;;;;16.50;99.90;;;;;;5124404;27;20453;-77
2022/06/27 02:08:19;;;;;;;;;;;16.50;99.90;;;;;;5119294;27;19926;-78
2022/06/27 02:10:45;;;;;;;;;;;16.50;99.90;;;;;;5123184;27;19927;-78
2022/06/27 02:13:12;;;;;;;;;;;16.50;99.90;;;;;;5117985;27;19975;-78
2022/06/27 02:15:57;;;;;;;;;;;16.50;99.90;;;;;;5115378;27;19920;-77
2022/06/27 02:18:23;;;;;;;;;;;16.50;99.90;;;;;;5114816;28;20334;-77
2022/06/27 02:20:49;;;;;;;;;;;16.50;99.90;;;;;;5122839;27;19994;-77
2022/06/27 02:23:14;;;;;;;;;;;16.50;99.90;;;;;;5120657;27;20023;-77
2022/06/27 02:25:40;;;;;;;;;;;16.50;99.90;;;;;;5098266;28;19942;-77
2022/06/27 02:28:16;;;;;;;;;;;16.60;99.90;;;;;;5130114;27;19923;-78
2022/06/27 02:30:41;;;;;;;;;;;16.60;99.90;;;;;;5119253;27;20011;-78
2022/06/27 02:33:07;;;;;;;;;;;16.60;99.90;;;;;;5135616;27;20397;-78
2022/06/27 02:35:32;;;;;;;;;;;16.50;99.90;;;;;;5117118;27;20388;-78
2022/06/27 02:37:59;;;;;;;;;;;16.60;99.90;;;;;;5113702;28;19923;-77
2022/06/27 02:40:25;;;;;;;;;;;16.60;99.90;;;;;;5117994;27;19942;-77
2022/06/27 02:42:52;;;;;;;;;;;16.60;99.90;;;;;;5117705;27;20363;-77
2022/06/27 02:45:17;;;;;;;;;;;16.60;99.90;;;;;;5112620;27;20476;-77
2022/06/27 02:47:44;;;;;;;;;;;16.50;99.90;;;;;;5123156;27;19919;-77
2022/06/27 02:50:10;;;;;;;;;;;16.50;99.90;;;;;;5107991;27;20397;-78
2022/06/27 02:52:38;;;;;;;;;;;16.50;99.90;;;;;;5113822;27;19955;-78
2022/06/27 02:55:09;;;;;;;;;;;16.50;99.90;;;;;;5126339;27;20011;-78
2022/06/27 02:57:34;;;;;;;;;;;16.50;99.90;;;;;;5114521;27;20010;-77
2022/06/27 03:00:01;;;;;;;;;;;16.40;99.90;;;;;;5126256;27;20003;-78
2022/06/27 03:02:28;;;;;;;;;;;16.50;99.90;;;;;;5096652;28;19969;-79
2022/06/27 03:04:54;;;;;;;;;;;16.40;99.90;;;;;;5119714;27;19957;-78
2022/06/27 03:07:20;;;;;;;;;;;16.50;99.90;;;;;;5120331;27;19927;-77
2022/06/27 03:09:46;;;;;;;;;;;16.40;99.90;;;;;;5106354;27;20017;-79
2022/06/27 03:12:11;;;;;;;;;;;16.40;99.90;;;;;;5133948;27;19919;-77
2022/06/27 03:14:37;;;;;;;;;;;16.50;99.90;;;;;;5130057;27;20258;-78
2022/06/27 03:17:03;;;;;;;;;;;16.50;99.90;;;;;;5095993;28;20010;-78
2022/06/27 03:19:28;;;;;;;;;;;16.50;99.90;;;;;;5096238;28;20010;-78
2022/06/27 03:21:54;;;;;;;;;;;16.40;99.90;;;;;;5096126;28;19958;-77
2022/06/27 03:24:20;;;;;;;;;;;16.40;99.90;;;;;;5127364;27;19924;-77
2022/06/27 03:26:45;;;;;;;;;;;16.40;99.90;;;;;;5113460;28;20332;-78
2022/06/27 03:29:11;;;;;;;;;;;16.40;99.90;;;;;;5124849;27;20333;-77
2022/06/27 03:31:37;;;;;;;;;;;16.40;99.90;;;;;;5129147;27;19923;-77
2022/06/27 03:34:02;;;;;;;;;;;16.40;99.90;;;;;;5106127;27;19926;-76
2022/06/27 03:36:29;;;;;;;;;;;16.40;99.90;;;;;;5115860;27;19924;-77
2022/06/27 03:38:54;;;;;;;;;;;16.40;99.90;;;;;;5114311;27;20293;-77
2022/06/27 03:41:20;;;;;;;;;;;16.40;99.90;;;;;;5113253;28;19920;-77
2022/06/27 03:43:49;;;;;;;;;;;16.40;99.90;;;;;;5108115;27;19964;-77
2022/06/27 03:46:14;;;;;;;;;;;16.40;99.90;;;;;;5132570;27;20006;-77
2022/06/27 03:51:24;;;;;;;;;;;16.50;99.90;;;;;;5111906;28;19967;-76
2022/06/27 03:53:56;;;;;;;;;;;16.50;99.90;;;;;;5112542;28;19931;-78
2022/06/27 03:56:22;;;;;;;;;;;16.40;99.90;;;;;;5111858;28;20249;-77
2022/06/27 03:58:48;;;;;;;;;;;16.40;99.90;;;;;;5111503;28;19935;-78
2022/06/27 04:01:14;;;;;;;;;;;16.40;99.90;;;;;;5114745;27;19923;-77
2022/06/27 04:03:40;;;;;;;;;;;16.40;99.90;;;;;;5122679;27;19919;-79
2022/06/27 04:06:06;;;;;;;;;;;16.40;99.90;;;;;;5113559;27;20288;-77
2022/06/27 04:08:32;;;;;;;;;;;16.40;99.90;;;;;;5096003;28;19920;-78
2022/06/27 04:10:58;;;;;;;;;;;16.40;99.90;;;;;;5095199;28;19931;-77
2022/06/27 04:13:23;;;;;;;;;;;16.40;99.90;;;;;;5125861;27;20002;-78
2022/06/27 04:15:49;;;;;;;;;;;16.40;99.90;;;;;;5112214;28;19928;-78
2022/06/27 04:18:14;;;;;;;;;;;16.40;99.90;;;;;;5117821;27;19925;-77
2022/06/27 04:20:42;;;;;;;;;;;16.40;99.90;;;;;;5097759;27;19927;-77
2022/06/27 04:23:10;;;;;;;;;;;16.40;99.90;;;;;;5116801;27;19919;-77
2022/06/27 04:25:36;;;;;;;;;;;16.40;99.90;;;;;;5120553;27;19927;-78
2022/06/27 04:28:02;;;;;;;;;;;16.40;99.90;;;;;;5077705;28;19919;-78
2022/06/27 04:30:28;;;;;;;;;;;16.40;99.90;;;;;;5112339;28;19970;-78
2022/06/27 04:32:55;;;;;;;;;;;16.40;99.90;;;;;;5111957;28;19924;-78
2022/06/27 04:35:23;;;;;;;;;;;16.50;99.90;;;;;;5095355;28;19920;-78
2022/06/27 04:37:49;;;;;;;;;;;16.50;99.90;;;;;;5107081;28;19923;-78
2022/06/27 04:40:14;;;;;;;;;;;16.60;99.90;;;;;;5105540;28;20249;-78
2022/06/27 04:42:42;;;;;;;;;;;16.60;99.90;;;;;;5087527;28;19924;-78
2022/06/27 04:45:11;;;;;;;;;;;16.70;99.90;;;;;;5111243;28;19931;-78
2022/06/27 04:47:40;;;;;;;;;;;16.70;99.90;;;;;;5091243;27;19924;-77
2022/06/27 04:50:08;;;;;;;;;;;16.70;99.90;;;;;;5102407;28;20322;-77
2022/06/27 04:52:34;;;;;;;;;;;16.80;99.90;;;;;;5094513;28;19919;-77
2022/06/27 04:55:00;;;;;;;;;;;16.70;99.90;;;;;;5118825;27;19927;-77
2022/06/27 04:57:26;;;;;;;;;;;16.70;99.90;;;;;;5102635;28;19931;-77
2022/06/27 04:59:52;;;;;;;;;;;16.70;99.90;;;;;;5094937;28;19924;-77
2022/06/27 05:02:18;;;;;;;;;;;16.80;99.90;;;;;;5094467;28;19930;-77
2022/06/27 05:04:44;;;;;;;;;;;16.80;99.90;;;;;;5113774;27;19928;-78
2022/06/27 05:07:09;;;;;;;;;;;16.90;99.90;;;;;;5116661;27;19924;-77
2022/06/27 05:09:35;;;;;;;;;;;16.90;99.90;;;;;;5105402;28;19919;-77
2022/06/27 05:12:01;;;;;;;;;;;16.90;99.90;;;;;;5111256;28;19924;-77
2022/06/27 05:14:26;;;;;;;;;;;17.00;99.90;;;;;;5094067;28;19920;-77
2022/06/27 05:16:52;;;;;;;;;;;17.10;99.90;;;;;;5110750;28;19992;-77
2022/06/27 05:19:17;;;;;;;;;;;17.10;99.90;;;;;;5110509;28;20018;-77
2022/06/27 05:21:43;;;;;;;;;;;17.20;99.90;;;;;;5112029;28;19920;-77
2022/06/27 05:24:09;;;;;;;;;;;17.20;99.90;;;;;;5119866;28;19933;-76
2022/06/27 05:26:35;;;;;;;;;;;17.30;99.90;;;;;;5128775;28;19923;-77
2022/06/27 05:29:01;;;;;;;;;;;17.30;99.90;;;;;;5117631;28;19927;-77
2022/06/27 05:31:27;;;;;;;;;;;17.30;99.90;;;;;;5131580;28;20287;-78
2022/06/27 05:33:53;;;;;;;;;;;17.30;99.90;;;;;;5097213;28;20006;-78
2022/06/27 05:36:21;;;;;;;;;;;17.30;99.90;;;;;;5093214;27;19919;-78
2022/06/27 05:38:47;;;;;;;;;;;17.30;99.90;;;;;;5131804;27;19924;-76
2022/06/27 05:41:12;;;;;;;;;;;17.30;99.90;;;;;;5115193;27;19926;-77
2022/06/27 05:43:39;;;;;;;;;;;17.30;99.90;;;;;;5117890;27;19923;-77
2022/06/27 05:46:04;;;;;;;;;;;17.30;99.90;;;;;;5136181;27;20325;-77
2022/06/27 05:48:31;;;;;;;;;;;17.20;99.90;;;;;;5102726;28;19920;-78
2022/06/27 05:50:58;;;;;;;;;;;17.20;99.90;;;;;;5097206;28;19998;-77
2022/06/27 05:53:24;;;;;;;;;;;17.20;99.90;;;;;;5127975;27;20258;-78
2022/06/27 05:55:50;;;;;;;;;;;17.20;99.90;;;;;;5115185;27;20006;-77
2022/06/27 05:58:18;;;;;;;;;;;17.30;99.90;;;;;;5114641;28;19989;-77
2022/06/27 06:00:44;;;;;;;;;;;17.40;99.90;;;;;;5108896;27;19927;-77
2022/06/27 06:03:09;;;;;;;;;;;17.50;99.90;;;;;;5118436;27;19920;-77
2022/06/27 06:05:35;;;;;;;;;;;17.70;99.90;;;;;;5115002;28;20272;-77
2022/06/27 06:08:05;;;;;;;;;;;17.90;99.90;;;;;;5097804;28;19927;-78
2022/06/27 06:10:33;;;;;;;;;;;18.00;99.90;;;;;;5124546;27;19919;-78
2022/06/27 06:13:02;;;;;;;;;;;18.00;99.90;;;;;;5121130;27;19943;-78
2022/06/27 06:15:32;;;;;;;;;;;18.30;99.90;;;;;;5125791;27;20139;-77
2022/06/27 06:17:59;;;;;;;;;;;18.10;99.90;;;;;;5129989;27;20010;-77
2022/06/27 06:20:25;;;;;;;;;;;18.20;99.90;;;;;;5134756;27;19923;-77
2022/06/27 06:22:51;;;;;;;;;;;18.10;99.90;;;;;;5134240;27;20011;-77
2022/06/27 06:25:17;;;;;;;;;;;18.20;99.90;;;;;;5128298;27;20007;-77
2022/06/27 06:27:44;;;;;;;;;;;18.20;99.90;;;;;;5114177;28;19920;-77
2022/06/27 06:30:10;;;;;;;;;;;18.20;99.90;;;;;;5117894;27;19963;-77
2022/06/27 06:32:45;;;;;;;;;;;18.20;99.90;;;;;;5122719;27;19934;-77
2022/06/27 06:35:10;;;;;;;;;;;18.10;99.90;;;;;;5117475;27;19927;-77
2022/06/27 06:37:39;;;;;;;;;;;18.00;99.90;;;;;;5115434;27;20023;-77
2022/06/27 06:40:05;;;;;;;;;;;18.00;99.90;;;;;;5109802;28;19935;-77
2022/06/27 06:42:32;;;;;;;;;;;18.00;99.90;;;;;;5096720;28;20357;-77
2022/06/27 06:44:58;;;;;;;;;;;18.00;99.90;;;;;;5096238;28;19924;-76
2022/06/27 06:47:26;;;;;;;;;;;17.90;99.90;;;;;;5113705;28;20317;-77
2022/06/27 06:49:51;;;;;;;;;;;17.90;99.90;;;;;;5093643;28;19923;-76
2022/06/27 06:52:18;;;;;;;;;;;18.00;99.90;;;;;;5106472;27;19943;-77
2022/06/27 06:54:45;;;;;;;;;;;18.00;99.90;;;;;;5134304;27;19930;-77
2022/06/27 06:57:13;;;;;;;;;;;18.10;99.90;;;;;;5117239;27;20258;-77
2022/06/27 06:59:48;;;;;;;;;;;18.00;99.90;;;;;;5116864;27;20416;-78
2022/06/27 07:02:13;;;;;;;;;;;18.00;99.90;;;;;;5114232;27;19998;-77
2022/06/27 07:04:39;;;;;;;;;;;18.10;99.90;;;;;;5128862;27;19920;-77
2022/06/27 07:07:05;;;;;;;;;;;18.00;99.90;;;;;;5088482;28;19923;-77
2022/06/27 07:09:31;;;;;;;;;;;18.00;99.90;;;;;;5095266;28;19919;-77
2022/06/27 07:11:57;;;;;;;;;;;18.00;99.90;;;;;;5113603;28;19920;-76
2022/06/27 07:14:26;;;;;;;;;;;17.90;99.90;;;;;;5113616;28;19920;-77
2022/06/27 07:16:52;;;;;;;;;;;17.90;99.90;;;;;;5076743;28;19973;-77
2022/06/27 07:19:18;;;;;;;;;;;17.90;99.90;;;;;;5087995;28;19928;-77
2022/06/27 07:21:43;;;;;;;;;;;17.90;99.90;;;;;;5112855;28;19996;-77
2022/06/27 07:24:09;;;;;;;;;;;17.90;99.90;;;;;;5113366;28;19919;-77
2022/06/27 07:26:35;;;;;;;;;;;18.00;99.90;;;;;;5112754;28;19920;-77
2022/06/27 07:29:03;;;;;;;;;;;18.00;99.90;;;;;;5106424;27;19919;-77
2022/06/27 07:31:28;;;;;;;;;;;18.00;99.90;;;;;;5116936;27;20010;-78
2022/06/27 07:33:54;;;;;;;;;;;18.00;99.90;;;;;;5112880;28;20356;-76
2022/06/27 07:36:22;;;;;;;;;;;18.00;99.90;;;;;;5127025;27;19920;-77
2022/06/27 07:38:49;;;;;;;;;;;18.10;99.90;;;;;;5112765;28;19930;-77
2022/06/27 07:41:16;;;;;;;;;;;18.10;99.90;;;;;;5125417;27;19919;-77
2022/06/27 07:43:44;;;;;;;;;;;18.00;99.90;;;;;;5131349;27;19926;-77
2022/06/27 07:46:10;;;;;;;;;;;18.00;99.90;;;;;;5121244;27;19920;-76
2022/06/27 07:48:35;;;;;;;;;;;17.90;99.90;;;;;;5110753;27;20395;-78
2022/06/27 07:51:01;;;;;;;;;;;17.90;99.90;;;;;;5108395;27;19990;-76
2022/06/27 07:53:27;;;;;;;;;;;17.90;99.90;;;;;;5112330;27;19920;-77
2022/06/27 07:55:54;;;;;;;;;;;17.90;99.90;;;;;;5095355;28;19955;-76
2022/06/27 07:58:30;;;;;;;;;;;17.80;99.90;;;;;;5112595;27;20249;-76
2022/06/27 08:00:57;;;;;;;;;;;17.80;99.90;;;;;;5134405;27;19927;-77
2022/06/27 08:03:39;;;;;;;;;;;17.80;99.90;;;;;;5131774;27;20119;-76
2022/06/27 08:06:15;;;;;;;;;;;17.80;99.90;;;;;;5133233;27;20364;-77
2022/06/27 08:08:42;;;;;;;;;;;17.90;99.90;;;;;;5101627;27;19967;-77
2022/06/27 08:11:13;;;;;;;;;;;17.90;99.90;;;;;;5132921;27;19927;-77
2022/06/27 08:13:40;;;;;;;;;;;17.90;99.90;;;;;;5126997;27;19945;-77
2022/06/27 08:16:06;;;;;;;;;;;17.90;99.90;;;;;;5112196;28;19924;-77
2022/06/27 08:18:32;;;;;;;;;;;18.00;99.90;;;;;;5130998;27;19929;-78
2022/06/27 08:20:58;;;;;;;;;;;18.10;99.90;;;;;;5132912;27;19919;-77
2022/06/27 08:23:24;;;;;;;;;;;18.10;99.90;;;;;;5128707;27;19920;-76
2022/06/27 08:25:49;;;;;;;;;;;18.20;99.90;;;;;;5112062;28;20450;-78
2022/06/27 08:28:16;;;;;;;;;;;18.30;99.90;;;;;;5125498;27;19927;-77
2022/06/27 08:30:42;;;;;;;;;;;18.40;99.90;;;;;;5095121;28;19977;-78
2022/06/27 08:33:08;;;;;;;;;;;18.80;99.90;;;;;;5111629;28;19923;-78
2022/06/27 08:35:35;;;;;;;;;;;18.60;99.90;;;;;;5119088;27;20018;-78
2022/06/27 08:38:01;;;;;;;;;;;18.80;99.90;;;;;;5107375;27;19920;-77
2022/06/27 08:40:27;;;;;;;;;;;18.90;99.90;;;;;;5104238;28;20293;-78
2022/06/27 08:42:55;;;;;;;;;;;19.10;99.90;;;;;;5096599;27;19920;-77
2022/06/27 08:45:23;;;;;;;;;;;19.30;99.90;;;;;;5112893;27;20304;-76
2022/06/27 08:47:50;;;;;;;;;;;19.30;99.90;;;;;;5131692;27;19931;-77
2022/06/27 08:50:17;;;;;;;;;;;19.20;99.90;;;;;;5110771;28;19926;-77
2022/06/27 08:52:45;;;;;;;;;;;19.20;99.90;;;;;;5124604;27;19919;-76
2022/06/27 08:55:11;;;;;;;;;;;19.10;99.90;;;;;;5111159;28;20507;-77
2022/06/27 08:57:45;;;;;;;;;;;19.00;99.90;;;;;;5124462;27;20300;-77
2022/06/27 09:00:12;;;;;;;;;;;18.90;99.90;;;;;;5109863;28;20010;-77
2022/06/27 09:02:47;;;;;;;;;;;19.00;99.90;;;;;;5110491;28;19924;-77
2022/06/27 09:05:15;;;;;;;;;;;18.90;99.90;;;;;;5094506;28;19920;-77
2022/06/27 09:07:59;;;;;;;;;;;18.90;99.90;;;;;;5109724;28;19927;-78
2022/06/27 09:10:27;;;;;;;;;;;18.90;99.90;;;;;;5110924;28;19928;-76
2022/06/27 09:13:13;;;;;;;;;;;19.00;99.90;;;;;;5111585;28;19920;-77
2022/06/27 09:15:38;;;;;;;;;;;19.20;99.90;;;;;;5093410;28;20010;-78
2022/06/27 09:18:08;;;;;;;;;;;19.40;99.90;;;;;;5123592;28;19955;-78
2022/06/27 09:20:48;;;;;;;;;;;19.70;99.90;;;;;;5131607;28;19923;-77
2022/06/27 09:23:49;;;;;;;;;;;19.80;99.90;;;;;;5129993;28;19920;-77
2022/06/27 09:26:15;;;;;;;;;;;20.10;99.90;;;;;;5111655;28;19927;-77
2022/06/27 09:28:44;;;;;;;;;;;20.30;99.90;;;;;;5110661;28;20376;-78
2022/06/27 09:31:11;;;;;;;;;;;20.40;99.90;;;;;;5111514;28;20280;-77
2022/06/27 09:33:38;;;;;;;;;;;20.50;99.90;;;;;;5112782;28;20301;-77
2022/06/27 09:36:14;;;;;;;;;;;20.50;99.90;;;;;;5114939;28;19975;-77
2022/06/27 09:38:41;;;;;;;;;;;20.50;99.90;;;;;;5125885;28;19927;-77
2022/06/27 09:41:10;;;;;;;;;;;20.20;99.90;;;;;;5131656;28;20052;-78
2022/06/27 09:43:39;;;;;;;;;;;20.00;99.90;;;;;;5127037;27;19955;-76
2022/06/27 09:46:05;;;;;;;;;;;19.80;99.90;;;;;;5104981;28;20299;-77
2022/06/27 09:48:32;;;;;;;;;;;19.60;99.90;;;;;;5086010;28;19999;-78
2022/06/27 09:50:58;;;;;;;;;;;19.40;99.90;;;;;;5094743;28;19919;-78
2022/06/27 09:53:26;;;;;;;;;;;19.30;99.90;;;;;;5130517;28;19923;-77
2022/06/27 09:55:52;;;;;;;;;;;19.30;99.90;;;;;;5100768;28;19927;-77
2022/06/27 09:58:18;;;;;;;;;;;19.20;99.90;;;;;;5112099;28;20431;-77
2022/06/27 10:00:44;;;;;;;;;;;19.30;99.90;;;;;;5110586;28;19924;-76
2022/06/27 10:03:10;;;;;;;;;;;19.40;99.90;;;;;;5114751;28;20006;-77
2022/06/27 10:05:37;;;;;;;;;;;19.50;99.90;;;;;;5130951;28;20289;-76
2022/06/27 10:08:05;;;;;;;;;;;19.60;99.90;;;;;;5112911;28;19920;-77
2022/06/27 10:10:51;;;;;;;;;;;19.60;99.90;;;;;;5110439;28;19988;-77
2022/06/27 10:13:17;;;;;;;;;;;19.50;99.90;;;;;;5110877;28;20289;-77
2022/06/27 10:15:43;;;;;;;;;;;19.40;99.90;;;;;;5110426;28;19935;-77
2022/06/27 10:18:08;;;;;;;;;;;19.40;99.90;;;;;;5110741;28;19931;-76
2022/06/27 10:20:38;;;;;;;;;;;19.30;99.90;;;;;;5123125;27;20038;-76
2022/06/27 10:23:04;;;;;;;;;;;19.30;99.90;;;;;;5134619;27;20288;-76
2022/06/27 10:25:29;;;;;;;;;;;19.30;99.90;;;;;;5125741;27;20372;-76
2022/06/27 10:28:11;;;;;;;;;;;19.40;99.90;;;;;;5114609;28;19964;-77
2022/06/27 10:30:51;;;;;;;;;;;19.50;99.90;;;;;;5105555;27;20018;-78
2022/06/27 10:33:23;;;;;;;;;;;19.60;99.90;;;;;;5117011;27;20440;-77
2022/06/27 10:38:21;;;;;;;;;;;19.60;99.90;;;;;;5106146;27;19931;-77
2022/06/27 10:40:46;;;;;;;;;;;19.70;99.90;;;;;;5106542;27;19920;-77
2022/06/27 10:43:32;;;;;;;;;;;19.70;99.90;;;;;;5117640;27;20373;-77
2022/06/27 10:45:58;;;;;;;;;;;19.90;99.90;;;;;;5113788;28;19993;-77
2022/06/27 10:48:35;;;;;;;;;;;20.20;99.90;;;;;;5113997;28;19923;-77
2022/06/27 10:51:19;;;;;;;;;;;20.30;99.90;;;;;;5100621;28;20002;-76
2022/06/27 10:53:45;;;;;;;;;;;20.50;99.90;;;;;;5113774;28;20248;-77
2022/06/27 10:56:26;;;;;;;;;;;20.50;99.90;;;;;;5079204;27;19927;-77
2022/06/27 10:58:52;;;;;;;;;;;20.60;99.90;;;;;;5113652;28;19924;-77
2022/06/27 11:01:21;;;;;;;;;;;20.60;99.90;;;;;;5129633;27;19946;-76
2022/06/27 11:03:56;;;;;;;;;;;20.70;99.90;;;;;;5134714;27;19919;-77
2022/06/27 11:06:25;;;;;;;;;;;21.30;99.90;;;;;;5115579;27;19967;-77
2022/06/27 11:08:52;;;;;;;;;;;20.90;99.90;;;;;;5096818;28;19943;-77
2022/06/27 11:11:27;;;;;;;;;;;21.20;99.90;;;;;;5129805;27;19919;-77
2022/06/27 11:13:54;;;;;;;;;;;21.30;99.90;;;;;;5123941;27;19920;-76
2022/06/27 11:16:22;;;;;;;;;;;21.40;99.90;;;;;;5113382;28;19942;-76
2022/06/27 11:18:48;;;;;;;;;;;21.50;99.90;;;;;;5113259;28;20292;-77
2022/06/27 11:21:15;;;;;;;;;;;21.40;99.90;;;;;;5095780;28;19920;-76
2022/06/27 11:23:58;;;;;;;;;;;21.40;99.90;;;;;;5119628;27;19919;-77
2022/06/27 11:26:25;;;;;;;;;;;21.20;99.90;;;;;;5118166;27;19919;-77
2022/06/27 11:32:08;;;;;;;;;;;21.10;99.90;;;;;;5111891;28;19927;-77
2022/06/27 11:34:28;;;;;;;;;;;21.20;99.90;;;;;;5110952;28;19920;-77
2022/06/27 11:36:55;;;;;;;;;;;21.30;99.90;;;;;;5112421;28;19924;-77
2022/06/27 11:39:22;;;;;;;;;;;21.20;99.90;;;;;;5113170;28;19931;-77
2022/06/27 11:41:53;;;;;;;;;;;21.20;99.90;;;;;;5126896;27;20014;-77
2022/06/27 11:44:18;;;;;;;;;;;21.20;99.90;;;;;;5112730;28;19942;-77
2022/06/27 11:46:49;;;;;;;;;;;21.00;99.90;;;;;;5095212;28;20002;-76
2022/06/27 11:49:18;;;;;;;;;;;20.90;99.90;;;;;;5111353;28;19919;-76
2022/06/27 11:51:47;;;;;;;;;;;20.90;99.90;;;;;;5093468;28;19966;-77
2022/06/27 11:54:22;;;;;;;;;;;20.90;99.90;;;;;;5113449;27;19926;-77
2022/06/27 11:56:48;;;;;;;;;;;20.80;99.90;;;;;;5099551;28;19923;-77
2022/06/27 11:59:15;;;;;;;;;;;20.80;99.90;;;;;;5112367;28;20374;-77
2022/06/27 12:01:57;;;;;;;;;;;20.80;99.90;;;;;;5111903;28;19927;-76
2022/06/27 12:04:27;;;;;;;;;;;20.80;99.90;;;;;;5113249;27;19927;-77
2022/06/27 12:06:54;;;;;;;;;;;20.70;99.90;;;;;;5132204;27;19919;-77
2022/06/27 12:09:21;;;;;;;;;;;20.80;99.90;;;;;;5116017;27;19923;-76
2022/06/27 12:11:58;;;;;;;;;;;20.70;99.90;;;;;;5132806;27;20424;-76
2022/06/27 12:14:24;;;;;;;;;;;20.60;99.90;;;;;;5131116;27;19920;-77
2022/06/27 12:16:51;;;;;;;;;;;20.50;99.90;;;;;;5102023;27;19919;-77
2022/06/27 12:19:17;;;;;;;;;;;20.50;99.90;;;;;;5115542;27;20007;-76
2022/06/27 12:21:43;;;;;;;;;;;20.40;99.90;;;;;;5100174;27;19955;-77
2022/06/27 12:24:09;;;;;;;;;;;20.40;99.90;;;;;;5115413;27;20017;-76
2022/06/27 12:26:34;;;;;;;;;;;20.40;99.90;;;;;;5119426;27;19929;-76
2022/06/27 12:29:00;;;;;;;;;;;20.30;99.90;;;;;;5132571;27;19966;-77
2022/06/27 12:31:26;;;;;;;;;;;20.40;99.90;;;;;;5117390;27;19976;-76
2022/06/27 12:33:51;;;;;;;;;;;20.50;99.90;;;;;;5114091;27;19972;-77
2022/06/27 12:36:17;;;;;;;;;;;20.60;99.90;;;;;;5132271;27;19919;-76
2022/06/27 12:38:43;;;;;;;;;;;20.70;99.90;;;;;;5100751;27;19974;-76
2022/06/27 12:41:12;;;;;;;;;;;20.70;99.90;;;;;;5112241;28;19963;-77
2022/06/27 12:43:41;;;;;;;;;;;20.70;99.90;;;;;;5108130;28;19924;-77
2022/06/27 12:46:07;;;;;;;;;;;20.70;99.90;;;;;;5112001;28;19973;-77
2022/06/27 12:48:32;;;;;;;;;;;20.70;99.90;;;;;;5108556;28;19963;-76
2022/06/27 12:50:58;;;;;;;;;;;20.70;99.90;;;;;;5093579;28;19931;-76
2022/06/27 12:53:24;;;;;;;;;;;20.70;99.90;;;;;;5094388;28;19919;-76
2022/06/27 12:55:49;;;;;;;;;;;20.80;99.90;;;;;;5111474;28;19930;-77
2022/06/27 12:58:16;;;;;;;;;;;20.80;99.90;;;;;;5111685;28;19995;-77
2022/06/27 13:00:42;;;;;;;;;;;20.80;99.90;;;;;;5111102;28;19924;-77
2022/06/27 13:03:07;;;;;;;;;;;20.60;99.90;;;;;;5094632;28;19930;-77
2022/06/27 13:05:33;;;;;;;;;;;20.50;99.90;;;;;;5094522;28;20019;-77
2022/06/27 13:07:59;;;;;;;;;;;20.40;99.90;;;;;;5125028;27;20022;-77
2022/06/27 13:10:25;;;;;;;;;;;20.30;99.90;;;;;;5121839;27;20018;-77
2022/06/27 13:12:50;;;;;;;;;;;20.20;99.90;;;;;;5115679;27;20412;-76
2022/06/27 13:15:17;;;;;;;;;;;20.00;99.90;;;;;;5087095;28;19924;-77
2022/06/27 13:17:43;;;;;;;;;;;20.00;99.90;;;;;;5114697;28;19927;-77
2022/06/27 13:20:09;;;;;;;;;;;19.90;99.90;;;;;;5124342;28;19924;-76
2022/06/27 13:22:36;;;;;;;;;;;19.90;99.90;;;;;;5110378;28;19974;-76
2022/06/27 13:25:01;;;;;;;;;;;19.90;99.90;;;;;;5110290;28;20368;-76
2022/06/27 13:27:27;;;;;;;;;;;19.90;99.90;;;;;;5124353;28;19925;-76
2022/06/27 13:29:53;;;;;;;;;;;19.90;99.90;;;;;;5111536;28;19919;-77
2022/06/27 13:32:19;;;;;;;;;;;20.00;99.90;;;;;;5074291;28;19924;-77
2022/06/27 13:34:44;;;;;;;;;;;20.10;99.90;;;;;;5090544;28;19934;-76
2022/06/27 13:37:10;;;;;;;;;;;20.00;99.90;;;;;;5093695;28;20277;-77
2022/06/27 13:39:36;;;;;;;;;;;20.00;99.90;;;;;;5124740;28;19930;-77
2022/06/27 13:42:03;;;;;;;;;;;20.10;99.90;;;;;;5094216;28;20006;-77
2022/06/27 13:44:32;;;;;;;;;;;20.20;99.90;;;;;;5094833;28;20010;-77
2022/06/27 13:46:58;;;;;;;;;;;20.40;99.90;;;;;;5100267;28;19929;-77
2022/06/27 13:49:24;;;;;;;;;;;20.50;99.90;;;;;;5129907;28;19935;-77
2022/06/27 13:51:50;;;;;;;;;;;20.60;99.90;;;;;;5093432;28;20372;-77
2022/06/27 13:54:16;;;;;;;;;;;20.70;99.90;;;;;;5112556;28;20002;-77
2022/06/27 13:56:42;;;;;;;;;;;20.80;99.90;;;;;;5114625;27;19924;-77
2022/06/27 13:59:09;;;;;;;;;;;20.80;99.90;;;;;;5106194;27;19924;-77
2022/06/27 14:01:35;;;;;;;;;;;20.80;99.90;;;;;;5114616;28;19920;-77
2022/06/27 14:04:01;;;;;;;;;;;20.80;99.90;;;;;;5114642;28;19919;-77
2022/06/27 14:09:10;;;;;;;;;;;20.70;99.90;;;;;;5125902;27;20275;-77
2022/06/27 14:11:36;;;;;;;;;;;20.70;99.90;;;;;;5097589;28;19920;-77
2022/06/27 14:14:02;;;;;;;;;;;20.70;99.90;;;;;;5114701;28;19970;-77
2022/06/27 14:16:29;;;;;;;;;;;20.80;99.90;;;;;;5127953;27;20384;-77
2022/06/27 14:18:55;;;;;;;;;;;20.80;99.90;;;;;;5134643;27;19923;-77
2022/06/27 14:21:21;;;;;;;;;;;20.80;99.90;;;;;;5121593;27;19926;-77
2022/06/27 14:23:46;;;;;;;;;;;20.80;99.90;;;;;;5097279;28;20391;-77
2022/06/27 14:26:12;;;;;;;;;;;20.80;99.90;;;;;;5108153;27;19958;-77
2022/06/27 14:28:37;;;;;;;;;;;20.70;99.90;;;;;;5117269;27;19924;-77
2022/06/27 14:31:03;;;;;;;;;;;21.10;99.90;;;;;;5096883;28;19941;-77